• Join FlightAware (Why Join?)
  • Login
  • US Flag 
08:02AM EDT


 

Airport Tracker/Info


-or-


 

Live Flight TrackerFlight Track Log ✈ CFS779 ✈ 02-May-2013 ✈ KGEG - KYKM

Flight Track Log - Related Links

Times and Time Zones

All times are in EDT time to prevent confusion due to time zone crossing. See the CFS779 flight status page for this flight to view local times or setup timezone preferences in your user account.

Time Position Orientation Groundspeed Altitude Reporting Facility
EDT Latitude Longitude Course Direction KTS MPH feet Rate Location/Type
09:52AM 47.5183 -117.8236 234° Southwest 153 176 6,600  Level Seattle Center
09:53AM 47.4663 -117.8397 238° Southwest  Level FlightAware Approximate
09:53AM 47.4969 -117.8867 243° Southwest 167 192 6,500  Level Seattle Center
09:54AM 47.4435 -117.8930 238° Southwest  Level FlightAware Approximate
09:54AM 47.4786 -117.9461 245° Southwest 163 188 6,500  Level Seattle Center
09:55AM 47.4192 -117.9450 234° Southwest  Level FlightAware Approximate
09:55AM 47.4594 -118.0053 244° Southwest 160 184 6,500  Level Seattle Center
09:56AM 47.3939 -117.9957 234° Southwest  Level FlightAware Approximate
09:56AM 47.4356 -118.0761 244° Southwest 161 185 6,500  Level Seattle Center
09:57AM 47.3685 -118.0465 234° Southwest  Level FlightAware Approximate
09:57AM 47.4164 -118.1333 244° Southwest 156 180 6,500  Level Seattle Center
09:58AM 47.3975 -118.1897 244° Southwest 154 177 6,500  Level Seattle Center
09:59AM 47.3778 -118.2464 243° Southwest 156 180 6,500  Level Seattle Center
10:00AM 47.3589 -118.3044 244° Southwest 157 181 6,500  Level Seattle Center
10:01AM 47.3389 -118.3606 242° Southwest 155 178 6,500  Level Seattle Center
10:02AM 47.3189 -118.4178 243° Southwest 156 180 6,500  Level Seattle Center
10:03AM 47.2994 -118.4744 243° Southwest 156 180 6,500  Level Seattle Center
10:04AM 47.2803 -118.5342 245° Southwest 162 186 6,500  Level Seattle Center
10:05AM 47.2611 -118.5914 244° Southwest 157 181 6,500  Level Seattle Center
10:06AM 47.2417 -118.6478 243° Southwest 155 178 6,500  Level Seattle Center
10:07AM 47.2217 -118.7050 243° Southwest 157 181 6,500  Level Seattle Center
10:08AM 47.2019 -118.7628 243° Southwest 158 182 6,500  Level Seattle Center
10:09AM 47.1822 -118.8211 244° Southwest 160 184 6,500  Level Seattle Center
10:10AM 47.1583 -118.8900 243° Southwest 159 183 6,500  Level Seattle Center
10:11AM 47.1381 -118.9469 242° Southwest 158 182 6,500  Level Seattle Center
10:12AM 47.1178 -119.0044 243° Southwest 159 183 6,500  Level Seattle Center
10:13AM 47.0978 -119.0622 243° Southwest 158 182 6,500  Level Seattle Center
10:14AM 47.0789 -119.1200 244° Southwest 158 182 6,500  Level Seattle Center
10:15AM 47.0589 -119.1767 243° Southwest 158 182 6,500  Level Seattle Center
10:16AM 47.0389 -119.2336 243° Southwest 158 182 6,500  Level Seattle Center
10:17AM 47.0189 -119.2906 243° Southwest 157 181 6,500  Level Seattle Center
10:18AM 46.9992 -119.3472 243° Southwest 158 182 6,500  Level Seattle Center
10:19AM 46.9794 -119.4036 243° Southwest 155 178 6,500  Level Seattle Center
10:20AM 46.9589 -119.4600 242° Southwest 156 180 6,500  Level Seattle Center
10:21AM 46.9389 -119.5175 243° Southwest 158 182 6,500  Level Seattle Center
10:22AM 46.9183 -119.5739 242° Southwest 156 180 6,500  Level Seattle Center
10:23AM 46.8947 -119.6425 243° Southwest 158 182 6,500  Level Seattle Center
10:24AM 46.8753 -119.6994 243° Southwest 158 182 6,500  Level Seattle Center
10:25AM 46.8539 -119.7553 241° Southwest 158 182 6,500  Level Seattle Center
10:26AM 46.8336 -119.8117 242° Southwest 158 182 6,500  Level Seattle Center
10:27AM 46.8133 -119.8683 242° Southwest 157 181 6,500  Level Seattle Center
10:28AM 46.7928 -119.9247 242° Southwest 159 183 6,500  Level Seattle Center
10:29AM 46.7733 -119.9800 243° Southwest 154 177 6,500  Level Seattle Center
10:30AM 46.7525 -120.0367 242° Southwest 153 176 6,600  Climbing Seattle Center
10:31AM 46.7319 -120.0942 242° Southwest 158 182 6,600  Level Seattle Center
10:32AM 46.7119 -120.1492 242° Southwest 155 178 6,600 -120 Level Seattle Center
10:33AM 46.6917 -120.2058 242° Southwest 158 182 6,400 -300 Descending Seattle Center
10:34AM 46.6708 -120.2633 242° Southwest 162 186 6,100 -360 Descending Seattle Center
10:35AM 46.6486 -120.3217 241° Southwest 165 190 5,700 -300 Descending Seattle Center
10:36AM 46.6256 -120.3736 237° Southwest 153 176 5,600 -600 Descending Seattle Center
10:37AM 46.5794 -120.4036 204° Southwest 165 190 4,500 -1,560 Descending Seattle Center
10:39AM 46.5536 -120.4597 236° Southwest 170 196 2,500 -1,620 Descending Seattle Center
10:40AM 46.5617 -120.5192 281° West 153 176 1,300 -780 Descending Seattle Center
10:41AM 46.5681 -120.5442 290° West 56 64 1,000 -180 Descending Seattle Center
10:42AM 46.5708 -120.5525 296° West 40 46 1,000  Level Seattle Center